Time;durP1;ratioP1;P1;durP2;ratioP2;P2;SDS_P1;SDS_P2;PMS_P1;PMS_P2;Temp;Humidity;BMP_temperature;BMP_pressure;BME280_temperature;BME280_humidity;BME280_pressure;Samples;Min_cycle;Max_cycle;Signal;HPM_P1;HPM_P2
2021/11/11 00:01:47;;;;;;;4.53;3.05;;;;;;;1.61;64.72;100521.56;5050584;28;20048;-57
2021/11/11 00:04:16;;;;;;;6.97;3.17;;;;;;;1.64;64.77;100521.47;5051045;28;20061;-58
2021/11/11 00:06:42;;;;;;;5.00;3.30;;;;;;;1.60;64.36;100516.31;5050933;28;20033;-56
2021/11/11 00:09:07;;;;;;;6.00;3.53;;;;;;;1.69;64.44;100524.81;5050975;28;20362;-57
2021/11/11 00:11:33;;;;;;;6.80;3.65;;;;;;;1.68;64.92;100509.88;5050778;28;20032;-57
2021/11/11 00:13:58;;;;;;;4.93;3.20;;;;;;;1.74;64.53;100518.50;5050790;28;20581;-55
2021/11/11 00:16:24;;;;;;;7.00;3.17;;;;;;;1.75;64.17;100505.25;5050020;28;20039;-57
2021/11/11 00:18:49;;;;;;;5.28;3.10;;;;;;;1.77;64.10;100492.88;5050588;28;20029;-58
2021/11/11 00:21:15;;;;;;;4.95;3.25;;;;;;;1.84;63.31;100485.63;5050649;28;20029;-58
2021/11/11 00:23:42;;;;;;;5.93;3.25;;;;;;;1.85;63.43;100472.34;5051016;28;20133;-58
2021/11/11 00:26:08;;;;;;;4.35;3.08;;;;;;;1.84;63.34;100481.19;5050928;28;20440;-58
2021/11/11 00:28:34;;;;;;;4.13;3.15;;;;;;;1.85;63.44;100479.41;5050451;28;20112;-58
2021/11/11 00:31:00;;;;;;;5.40;3.08;;;;;;;1.89;62.49;100477.50;5050739;28;20124;-57
2021/11/11 00:33:27;;;;;;;4.05;2.97;;;;;;;1.88;62.77;100470.50;5049195;28;20032;-57
2021/11/11 00:35:53;;;;;;;4.90;3.20;;;;;;;1.88;63.36;100462.59;5049191;28;20437;-54
2021/11/11 00:38:18;;;;;;;5.72;3.25;;;;;;;1.84;62.98;100460.06;5050599;28;20109;-57
2021/11/11 00:40:44;;;;;;;4.45;3.20;;;;;;;1.91;62.53;100463.34;5046098;28;20461;-55
2021/11/11 00:43:10;;;;;;;5.97;3.20;;;;;;;1.93;62.82;100463.28;5031119;28;20036;-56
2021/11/11 00:45:38;;;;;;;4.72;3.30;;;;;;;1.97;62.43;100455.22;5030738;28;20128;-57
2021/11/11 00:48:07;;;;;;;4.18;3.00;;;;;;;1.78;62.54;100420.66;5029274;28;20030;-59
2021/11/11 00:50:34;;;;;;;5.25;3.08;;;;;;;2.03;62.45;100450.63;5030485;28;20033;-58
2021/11/11 00:53:00;;;;;;;6.93;3.47;;;;;;;2.00;62.17;100446.34;5030765;28;20080;-57
2021/11/11 00:55:26;;;;;;;4.70;3.10;;;;;;;2.06;61.93;100464.59;5030298;28;20087;-60
2021/11/11 00:57:52;;;;;;;5.47;3.40;;;;;;;2.08;62.41;100457.47;5030984;28;20022;-53
2021/11/11 01:00:19;;;;;;;5.68;3.40;;;;;;;2.14;61.76;100457.25;5031887;28;20053;-59
2021/11/11 01:02:47;;;;;;;4.57;3.13;;;;;;;2.17;61.50;100463.34;5033792;28;20393;-55
2021/11/11 01:05:13;;;;;;;7.05;3.72;;;;;;;2.15;61.10;100450.22;5033455;28;20426;-56
2021/11/11 01:07:39;;;;;;;6.28;3.05;;;;;;;2.15;61.04;100447.56;5034496;28;20034;-56
2021/11/11 01:10:07;;;;;;;4.75;3.20;;;;;;;2.13;61.12;100442.31;5033913;28;20363;-54
2021/11/11 01:12:33;;;;;;;4.88;2.88;;;;;;;2.11;60.86;100432.75;5034019;28;20022;-58
2021/11/11 01:14:58;;;;;;;6.30;3.53;;;;;;;2.08;61.23;100423.13;5033957;28;20363;-56
2021/11/11 01:17:24;;;;;;;4.85;2.88;;;;;;;2.21;60.43;100428.00;5033758;28;20115;-56
2021/11/11 01:19:50;;;;;;;6.20;3.05;;;;;;;1.94;60.42;100373.47;5033495;28;20067;-55
2021/11/11 01:22:15;;;;;;;6.00;3.20;;;;;;;2.25;60.56;100419.03;5034340;28;20033;-59
2021/11/11 01:24:41;;;;;;;5.60;2.95;;;;;;;2.28;60.09;100421.56;5033712;28;20509;-56
2021/11/11 01:27:07;;;;;;;7.03;3.30;;;;;;;2.17;59.80;100405.22;5033207;28;20557;-57
2021/11/11 01:29:32;;;;;;;5.43;3.50;;;;;;;2.31;60.04;100429.38;5016359;28;20032;-57
2021/11/11 01:31:58;;;;;;;5.70;3.25;;;;;;;2.33;59.96;100422.25;5032708;28;20044;-55
2021/11/11 01:34:27;;;;;;;5.15;3.00;;;;;;;2.34;59.65;100417.84;5033334;28;20029;-55
2021/11/11 01:36:53;;;;;;;5.45;3.40;;;;;;;2.35;59.84;100423.06;5033371;28;20527;-56
2021/11/11 01:39:19;;;;;;;6.93;3.33;;;;;;;2.36;59.72;100414.22;5033276;28;20397;-55
2021/11/11 01:41:46;;;;;;;5.20;3.03;;;;;;;2.41;59.29;100420.22;5033896;28;20033;-59
2021/11/11 01:44:12;;;;;;;4.65;2.92;;;;;;;2.40;58.51;100407.03;5033739;28;20036;-59
2021/11/11 01:46:39;;;;;;;5.95;3.35;;;;;;;2.37;58.71;100401.88;5033245;28;20043;-56
2021/11/11 01:49:05;;;;;;;6.63;3.55;;;;;;;2.37;59.15;100397.44;5033370;28;20060;-56
2021/11/11 01:51:31;;;;;;;8.25;3.30;;;;;;;2.38;58.72;100396.50;5033237;28;20029;-57
2021/11/11 01:53:57;;;;;;;6.10;3.17;;;;;;;2.40;58.76;100407.88;5032946;28;20040;-57
2021/11/11 01:56:23;;;;;;;6.43;3.10;;;;;;;2.37;59.18;100389.50;5032696;28;20068;-58
2021/11/11 01:58:49;;;;;;;4.32;2.60;;;;;;;2.49;58.58;100400.56;5033313;28;20025;-57
2021/11/11 02:01:15;;;;;;;5.82;2.92;;;;;;;2.49;58.22;100389.97;5033250;28;20033;-57
2021/11/11 02:03:41;;;;;;;5.57;2.72;;;;;;;2.26;58.27;100354.72;5033499;28;20038;-53
2021/11/11 02:06:07;;;;;;;5.10;2.95;;;;;;;2.49;58.28;100382.06;5032584;28;20074;-54
2021/11/11 02:08:32;;;;;;;6.35;2.78;;;;;;;2.31;58.00;100354.53;5032826;28;20164;-56
2021/11/11 02:10:58;;;;;;;4.53;2.80;;;;;;;2.52;58.04;100379.28;5032630;28;20037;-58
2021/11/11 02:13:23;;;;;;;5.47;2.78;;;;;;;2.54;58.11;100375.69;5032958;28;20033;-56
2021/11/11 02:15:49;;;;;;;4.57;2.33;;;;;;;2.56;57.76;100367.66;5032586;28;20413;-57
2021/11/11 02:18:15;;;;;;;4.90;2.50;;;;;;;2.55;57.85;100345.66;5033194;28;20030;-60
2021/11/11 02:20:44;;;;;;;5.78;2.67;;;;;;;2.64;57.93;100360.28;5031882;28;20037;-55
2021/11/11 02:23:11;;;;;;;4.43;2.80;;;;;;;2.65;57.31;100356.75;5030954;28;20445;-56
2021/11/11 02:25:38;;;;;;;7.22;3.03;;;;;;;2.61;57.52;100349.84;5032351;28;20048;-56
2021/11/11 02:28:10;;;;;;;7.25;2.78;;;;;;;2.41;57.31;100305.69;5032146;28;20037;-58
2021/11/11 02:30:38;;;;;;;5.65;2.58;;;;;;;2.72;56.74;100347.66;5032490;28;20032;-57
2021/11/11 02:33:18;;;;;;;7.78;2.35;;;;;;;2.73;57.06;100330.84;5032148;28;20030;-59
2021/11/11 02:35:45;;;;;;;6.35;2.97;;;;;;;2.71;57.18;100335.34;5032232;28;20041;-56
2021/11/11 02:38:11;;;;;;;5.78;2.80;;;;;;;2.66;57.28;100318.81;5032239;28;20030;-58
2021/11/11 02:40:39;;;;;;;5.07;2.63;;;;;;;2.70;56.56;100325.69;5032341;28;20355;-55
2021/11/11 02:43:05;;;;;;;3.42;2.38;;;;;;;2.76;56.18;100321.91;5032160;28;20036;-54
2021/11/11 02:45:34;;;;;;;5.40;2.90;;;;;;;2.78;56.84;100328.03;5014438;28;20072;-57
2021/11/11 02:48:01;;;;;;;4.65;2.55;;;;;;;2.76;56.63;100334.31;5031943;28;20025;-59
2021/11/11 02:50:28;;;;;;;5.68;2.75;;;;;;;2.78;56.57;100325.41;5031980;28;20034;-59
2021/11/11 02:52:55;;;;;;;5.55;2.75;;;;;;;2.80;55.94;100320.03;5032290;28;20584;-59
2021/11/11 02:55:22;;;;;;;5.38;2.92;;;;;;;2.80;56.31;100339.41;5031764;28;20425;-57
2021/11/11 02:57:50;;;;;;;4.82;2.75;;;;;;;2.83;55.86;100317.25;5014438;28;20101;-56
2021/11/11 03:00:25;;;;;;;3.92;2.55;;;;;;;2.88;55.69;100323.22;5032174;28;20026;-56
2021/11/11 03:02:52;;;;;;;5.77;3.20;;;;;;;2.84;55.84;100311.91;5031870;28;20072;-57
2021/11/11 03:05:22;;;;;;;4.85;2.85;;;;;;;2.85;56.58;100308.34;5031805;28;20044;-54
2021/11/11 03:07:48;;;;;;;6.60;2.92;;;;;;;2.88;55.79;100310.00;5032318;28;20116;-56
2021/11/11 03:10:18;;;;;;;5.30;2.38;;;;;;;2.92;55.60;100297.50;5031772;28;20029;-55
2021/11/11 03:12:45;;;;;;;7.47;3.17;;;;;;;2.92;55.08;100303.69;5031462;28;20091;-56
2021/11/11 03:15:11;;;;;;;6.00;2.50;;;;;;;2.68;55.14;100244.72;5030097;28;20066;-54
2021/11/11 03:17:38;;;;;;;4.43;2.65;;;;;;;2.90;55.16;100279.06;5031591;28;20405;-57
2021/11/11 03:20:05;;;;;;;4.68;2.45;;;;;;;2.86;55.36;100277.44;5031643;28;20041;-55
2021/11/11 03:22:30;;;;;;;5.03;2.40;;;;;;;2.93;55.61;100273.66;5030461;28;20032;-56
2021/11/11 03:24:57;;;;;;;4.63;2.40;;;;;;;2.94;54.81;100275.38;5031674;28;20038;-56
2021/11/11 03:27:23;;;;;;;6.22;3.28;;;;;;;2.94;54.71;100263.91;5031807;28;20362;-58
2021/11/11 03:29:49;;;;;;;4.55;2.42;;;;;;;2.95;54.76;100263.88;5031485;28;20116;-57
2021/11/11 03:32:15;;;;;;;4.45;2.30;;;;;;;2.95;54.31;100249.75;5030918;28;20025;-58
2021/11/11 03:34:41;;;;;;;4.50;2.45;;;;;;;2.94;54.11;100245.41;5031406;28;20033;-55
2021/11/11 03:37:08;;;;;;;5.70;3.03;;;;;;;2.93;54.55;100248.97;5031221;28;20026;-59
2021/11/11 03:39:34;;;;;;;5.25;2.35;;;;;;;2.68;53.87;100195.34;5031582;28;20041;-58
2021/11/11 03:42:03;;;;;;;6.32;2.90;;;;;;;2.92;53.94;100236.69;5030941;28;20512;-59
2021/11/11 03:44:29;;;;;;;6.22;3.00;;;;;;;2.85;54.53;100228.13;5031418;28;20039;-55
2021/11/11 03:46:56;;;;;;;5.22;2.45;;;;;;;2.87;54.23;100226.28;5031541;28;20026;-57
2021/11/11 03:49:23;;;;;;;7.00;2.70;;;;;;;2.89;53.70;100228.88;5031461;28;20029;-56
2021/11/11 03:51:49;;;;;;;5.10;2.22;;;;;;;2.68;53.97;100189.19;5031017;28;20029;-56
2021/11/11 03:54:17;;;;;;;5.35;2.58;;;;;;;2.83;53.85;100207.06;5031151;28;20359;-57
2021/11/11 03:56:43;;;;;;;5.55;2.58;;;;;;;2.85;53.73;100212.25;5030964;28;20974;-55
2021/11/11 03:59:10;;;;;;;6.95;2.78;;;;;;;2.86;54.07;100198.13;5030937;28;20041;-56
2021/11/11 04:01:37;;;;;;;5.50;2.80;;;;;;;2.58;54.30;100139.34;5030725;28;20026;-56
2021/11/11 04:04:03;;;;;;;7.38;2.83;;;;;;;2.83;53.69;100204.41;5031084;28;20025;-56
2021/11/11 04:06:30;;;;;;;7.68;2.53;;;;;;;2.86;53.89;100208.69;5030811;28;20026;-57
2021/11/11 04:08:55;;;;;;;4.10;2.50;;;;;;;2.82;53.44;100191.25;5031155;28;20481;-54
2021/11/11 04:11:21;;;;;;;4.22;2.50;;;;;;;2.85;53.43;100194.63;5031032;28;20064;-57
2021/11/11 04:13:47;;;;;;;5.30;3.00;;;;;;;2.88;53.95;100214.78;5030584;28;20022;-55
2021/11/11 04:16:13;;;;;;;11.25;3.33;;;;;;;2.91;53.76;100198.81;5030199;28;20045;-59
2021/11/11 04:18:39;;;;;;;6.00;3.28;;;;;;;2.69;53.34;100153.88;5030793;28;20088;-60
2021/11/11 04:21:05;;;;;;;5.95;2.78;;;;;;;2.85;54.15;100197.28;5030571;28;20040;-61
2021/11/11 04:23:30;;;;;;;4.20;2.63;;;;;;;2.82;54.10;100181.53;5030900;28;20108;-61
2021/11/11 04:28:30;;;;;;;5.55;2.92;;;;;;;2.99;53.84;100188.75;5030973;28;20036;-64
2021/11/11 04:30:59;;;;;;;5.97;2.70;;;;;;;3.06;53.85;100191.13;5029373;28;20525;-59
2021/11/11 04:33:26;;;;;;;6.05;2.97;;;;;;;3.11;53.11;100186.47;5030586;28;20125;-60
2021/11/11 04:35:58;;;;;;;5.07;2.65;;;;;;;3.12;53.43;100182.91;5034670;28;20037;-57
2021/11/11 04:41:35;;;;;;;6.90;2.95;;;;;;;3.09;53.70;100175.09;5033987;28;20034;-59
2021/11/11 04:44:30;;;;;;;4.43;2.95;;;;;;;3.07;52.69;100151.38;5033908;28;20038;-55
2021/11/11 04:52:39;;;;;;;6.03;2.75;;;;;;;3.15;53.31;100154.53;5034402;28;20034;-61
2021/11/11 05:00:56;;;;;;;4.88;2.95;;;;;;;3.13;53.13;100145.81;5032700;28;20362;-56
2021/11/11 05:05:52;;;;;;;4.25;2.67;;;;;;;3.17;52.85;100138.59;5033612;28;20026;-55
2021/11/11 05:08:17;;;;;;;5.03;2.95;;;;;;;3.26;53.04;100137.34;5033693;28;20037;-54
2021/11/11 05:10:45;;;;;;;5.82;2.80;;;;;;;3.22;52.90;100131.31;5033355;28;20033;-57
2021/11/11 05:13:10;;;;;;;5.82;2.67;;;;;;;3.29;52.89;100134.53;5034091;28;20040;-61
2021/11/11 05:15:36;;;;;;;5.38;3.05;;;;;;;3.14;52.87;100101.69;5033838;28;20037;-59
2021/11/11 05:18:01;;;;;;;4.00;2.80;;;;;;;3.39;52.77;100142.94;5033436;28;20088;-57
2021/11/11 05:20:27;;;;;;;5.95;2.90;;;;;;;3.41;52.51;100149.00;5033986;28;20030;-59
2021/11/11 05:22:53;;;;;;;6.80;3.30;;;;;;;3.42;52.54;100134.84;5032384;28;20066;-58
2021/11/11 05:25:19;;;;;;;6.82;3.40;;;;;;;3.47;52.73;100131.97;5038813;28;20043;-61
2021/11/11 05:27:45;;;;;;;5.03;2.97;;;;;;;3.51;52.18;100146.81;5040985;28;20129;-59
2021/11/11 05:30:12;;;;;;;8.63;2.90;;;;;;;3.59;52.30;100134.91;5042445;28;20368;-59
2021/11/11 05:32:38;;;;;;;4.90;2.75;;;;;;;3.54;52.56;100121.03;5040766;28;20028;-56
2021/11/11 05:35:07;;;;;;;4.47;3.03;;;;;;;3.57;52.87;100131.47;5043225;28;20029;-57
2021/11/11 05:37:32;;;;;;;6.00;2.92;;;;;;;3.64;52.01;100142.63;5041890;28;20032;-59
2021/11/11 05:39:58;;;;;;;6.35;2.90;;;;;;;3.69;51.69;100145.91;5041283;28;20028;-59
2021/11/11 05:42:23;;;;;;;5.82;2.83;;;;;;;3.77;52.02;100131.47;5035276;28;20032;-58
2021/11/11 05:44:49;;;;;;;5.07;3.00;;;;;;;3.83;51.76;100147.06;5037804;28;20026;-57
2021/11/11 05:47:16;;;;;;;5.03;3.10;;;;;;;3.91;51.53;100144.91;5041737;28;20356;-56
2021/11/11 05:49:41;;;;;;;5.70;3.08;;;;;;;3.91;51.27;100139.59;5050578;28;20040;-58
2021/11/11 05:52:07;;;;;;;7.30;2.55;;;;;;;3.94;51.21;100147.41;5053314;28;20401;-59
2021/11/11 05:54:33;;;;;;;5.05;2.78;;;;;;;3.97;51.45;100141.13;5052756;28;20056;-55
2021/11/11 05:56:59;;;;;;;5.47;2.80;;;;;;;4.05;51.48;100138.09;5052595;28;20044;-57
2021/11/11 05:59:25;;;;;;;3.80;2.85;;;;;;;4.11;50.76;100132.50;5053237;28;20395;-59
2021/11/11 06:01:51;;;;;;;6.03;2.80;;;;;;;4.23;50.67;100123.94;5053025;28;20108;-58
2021/11/11 06:04:17;;;;;;;9.32;3.10;;;;;;;4.31;50.72;100121.78;5052133;28;20078;-57
2021/11/11 06:06:42;;;;;;;5.65;2.70;;;;;;;4.35;50.50;100129.56;5052017;28;20033;-62
2021/11/11 06:09:08;;;;;;;5.45;2.70;;;;;;;4.34;50.07;100133.16;5052400;28;20484;-60
2021/11/11 06:11:33;;;;;;;7.40;3.10;;;;;;;4.31;50.25;100123.53;5051310;28;20028;-61
2021/11/11 06:13:59;;;;;;;6.55;3.17;;;;;;;4.38;50.87;100132.94;5052707;28;20457;-57
2021/11/11 06:16:25;;;;;;;3.97;2.83;;;;;;;4.38;50.54;100132.94;5044189;28;20059;-57
2021/11/11 06:18:51;;;;;;;11.05;3.05;;;;;;;4.33;50.61;100119.03;5051502;28;20048;-59
2021/11/11 06:21:21;;;;;;;7.57;3.10;;;;;;;4.37;51.10;100122.38;5049966;28;20033;-61
2021/11/11 06:23:51;;;;;;;7.47;2.97;;;;;;;4.29;52.45;100128.06;5051456;28;20508;-60
2021/11/11 06:26:22;;;;;;;5.78;3.10;;;;;;;4.28;52.90;100131.66;5052056;28;20033;-60
2021/11/11 06:28:48;;;;;;;7.95;3.22;;;;;;;4.25;53.85;100145.06;5051945;28;20041;-61
2021/11/11 06:31:14;;;;;;;6.82;3.33;;;;;;;4.26;54.42;100136.19;5052055;28;20029;-60
2021/11/11 06:33:40;;;;;;;6.72;3.35;;;;;;;4.21;54.06;100117.00;5052015;28;20373;-61
2021/11/11 06:36:05;;;;;;;6.93;3.10;;;;;;;4.22;54.68;100130.19;5052566;28;20056;-61
2021/11/11 06:38:31;;;;;;;6.03;3.55;;;;;;;4.10;54.50;100126.34;5051937;28;20108;-61
2021/11/11 06:40:57;;;;;;;5.68;3.45;;;;;;;4.09;54.81;100124.59;5052120;28;20469;-61
2021/11/11 06:43:22;;;;;;;5.13;3.03;;;;;;;4.08;55.76;100125.53;5052196;28;20035;-60
2021/11/11 06:45:48;;;;;;;7.97;3.47;;;;;;;4.07;55.47;100123.81;5051924;28;20028;-63
2021/11/11 06:48:15;;;;;;;7.57;3.30;;;;;;;4.02;56.32;100117.91;5051770;28;20131;-63
2021/11/11 06:50:43;;;;;;;6.22;3.45;;;;;;;4.05;56.33;100123.03;5045645;28;20029;-61
2021/11/11 06:53:11;;;;;;;10.90;3.90;;;;;;;4.07;56.20;100115.88;5041050;28;20495;-62
2021/11/11 06:55:39;;;;;;;7.13;3.67;;;;;;;4.01;56.75;100114.41;5039642;28;20109;-62
2021/11/11 06:58:05;;;;;;;7.18;3.60;;;;;;;3.98;57.16;100118.97;5030295;28;20429;-61
2021/11/11 07:00:30;;;;;;;9.27;3.80;;;;;;;4.02;57.05;100125.84;5032242;28;20029;-59
2021/11/11 07:02:56;;;;;;;8.00;4.72;;;;;;;3.98;56.97;100122.50;5031423;28;20025;-62
2021/11/11 07:05:23;;;;;;;6.60;3.72;;;;;;;3.98;57.66;100118.97;5031405;28;20041;-61
2021/11/11 07:07:48;;;;;;;6.95;3.80;;;;;;;3.95;57.68;100112.03;5031826;28;20060;-61
2021/11/11 07:10:14;;;;;;;8.85;4.22;;;;;;;3.90;57.92;100102.63;5031879;28;20152;-66
2021/11/11 07:12:40;;;;;;;8.20;4.35;;;;;;;3.87;58.41;100104.47;5030251;28;20033;-62
2021/11/11 07:15:08;;;;;;;6.03;3.83;;;;;;;3.93;58.39;100105.94;5035039;28;20024;-63
2021/11/11 07:17:36;;;;;;;9.05;4.40;;;;;;;3.85;58.67;100103.66;5030796;28;20037;-60
2021/11/11 07:20:04;;;;;;;7.22;4.10;;;;;;;3.88;59.01;100095.59;5036827;28;20033;-63
2021/11/11 07:22:30;;;;;;;7.75;4.05;;;;;;;3.86;58.81;100094.81;5034821;28;20037;-63
2021/11/11 07:24:55;;;;;;;11.00;4.10;;;;;;;3.92;59.16;100098.09;5040799;28;20053;-62
2021/11/11 07:27:22;;;;;;;13.00;4.45;;;;;;;3.71;59.08;100059.31;5040717;28;20041;-63
2021/11/11 07:29:48;;;;;;;12.15;4.43;;;;;;;3.97;59.11;100086.31;5032507;28;20496;-63
2021/11/11 07:32:14;;;;;;;8.23;4.32;;;;;;;4.00;58.67;100106.50;5023389;28;20083;-62
2021/11/11 07:34:39;;;;;;;11.00;4.88;;;;;;;4.03;59.65;100095.75;5042288;28;20044;-62
2021/11/11 07:37:05;;;;;;;8.00;4.43;;;;;;;3.97;59.52;100102.22;5049887;28;20215;-63
2021/11/11 07:39:32;;;;;;;8.73;4.72;;;;;;;3.94;59.38;100102.38;5047663;28;20029;-62
2021/11/11 07:41:58;;;;;;;11.23;4.78;;;;;;;3.91;60.10;100102.53;5039915;28;20025;-63
2021/11/11 07:44:24;;;;;;;10.50;4.90;;;;;;;3.93;59.36;100103.31;5038669;28;20025;-62
2021/11/11 07:46:49;;;;;;;8.32;4.50;;;;;;;3.96;59.92;100108.44;5041831;28;20139;-63
2021/11/11 07:49:15;;;;;;;12.88;4.72;;;;;;;3.92;59.21;100077.75;5039981;28;20393;-63
2021/11/11 07:51:41;;;;;;;8.48;5.03;;;;;;;4.05;59.71;100088.59;5043383;28;20057;-63
2021/11/11 07:54:06;;;;;;;6.60;4.20;;;;;;;4.00;59.01;100075.59;5039552;28;20037;-62
2021/11/11 07:56:35;;;;;;;9.60;5.55;;;;;;;4.13;59.54;100096.16;5039676;28;20033;-65
2021/11/11 07:59:00;;;;;;;9.10;4.57;;;;;;;4.15;59.52;100081.94;5038761;28;20033;-62
2021/11/11 08:01:26;;;;;;;12.18;4.63;;;;;;;4.03;59.42;100045.41;5024313;28;20025;-64
2021/11/11 08:03:52;;;;;;;10.45;4.57;;;;;;;4.30;58.69;100082.94;5038878;28;20035;-64
2021/11/11 08:06:18;;;;;;;8.55;4.78;;;;;;;4.25;58.45;100061.13;5041595;28;20198;-64
2021/11/11 08:08:43;;;;;;;6.70;4.45;;;;;;;4.36;58.86;100071.19;5040351;28;20091;-65
2021/11/11 08:11:09;;;;;;;9.93;5.20;;;;;;;4.35;58.80;100053.56;5044324;28;20059;-64
2021/11/11 08:13:35;;;;;;;8.00;4.70;;;;;;;4.37;59.36;100059.63;5043933;28;20087;-64
2021/11/11 08:16:00;;;;;;;8.32;4.55;;;;;;;4.41;59.27;100063.84;5041832;28;20436;-63
2021/11/11 08:18:26;;;;;;;8.93;4.70;;;;;;;4.41;59.59;100057.66;5044536;28;20477;-63
2021/11/11 08:20:54;;;;;;;9.30;5.22;;;;;;;4.45;59.03;100076.00;5043917;28;20469;-64
2021/11/11 08:23:20;;;;;;;9.23;4.70;;;;;;;4.48;58.60;100064.41;5041481;28;20045;-63
2021/11/11 08:25:48;;;;;;;9.05;5.22;;;;;;;4.34;59.37;100030.66;5045114;28;20032;-63
2021/11/11 08:28:15;;;;;;;9.10;4.85;;;;;;;4.67;59.40;100066.06;5043453;28;20060;-62
2021/11/11 08:30:41;;;;;;;12.90;5.07;;;;;;;4.73;58.93;100071.91;5043064;28;20127;-62
2021/11/11 08:33:07;;;;;;;8.50;4.97;;;;;;;4.81;59.37;100075.94;5044634;28;20037;-64
2021/11/11 08:35:33;;;;;;;7.78;4.60;;;;;;;4.85;59.05;100065.09;5042911;28;20044;-62
2021/11/11 08:37:58;;;;;;;11.45;5.63;;;;;;;4.89;57.99;100063.16;5044802;28;20103;-63
2021/11/11 08:40:25;;;;;;;11.63;5.93;;;;;;;4.94;58.71;100070.84;5044069;28;20037;-63
2021/11/11 08:42:53;;;;;;;10.13;5.18;;;;;;;4.97;58.89;100074.22;5046521;28;20093;-63
2021/11/11 08:45:19;;;;;;;10.73;5.63;;;;;;;4.93;58.59;100085.06;5036165;28;20029;-63
2021/11/11 08:47:46;;;;;;;10.07;4.97;;;;;;;4.88;58.76;100080.84;5054436;28;20021;-63
2021/11/11 08:50:12;;;;;;;11.18;5.35;;;;;;;4.87;59.46;100075.66;5036650;28;20087;-63
2021/11/11 08:52:45;;;;;;;18.13;6.40;;;;;;;4.81;59.23;100076.81;5033771;28;20474;-63
2021/11/11 08:55:13;;;;;;;9.05;5.25;;;;;;;4.76;59.65;100076.22;5035931;28;20470;-63
2021/11/11 08:57:38;;;;;;;11.93;5.53;;;;;;;4.58;59.25;100039.09;5029537;28;20026;-63
2021/11/11 09:00:07;;;;;;;11.07;5.93;;;;;;;4.84;59.88;100091.75;5032327;28;20516;-61
2021/11/11 09:02:34;;;;;;;10.60;5.75;;;;;;;4.76;60.01;100078.00;5034442;28;20524;-62
2021/11/11 09:05:02;;;;;;;12.27;6.00;;;;;;;4.74;60.30;100078.94;5034011;28;20059;-63
2021/11/11 09:07:29;;;;;;;10.40;5.40;;;;;;;4.74;59.80;100078.94;5042921;28;20095;-63
2021/11/11 09:09:55;;;;;;;10.98;5.60;;;;;;;4.62;60.07;100058.38;5053804;28;20116;-63
2021/11/11 09:12:20;;;;;;;11.68;5.82;;;;;;;4.71;60.01;100079.09;5054544;28;20523;-62
2021/11/11 09:14:46;;;;;;;10.38;5.68;;;;;;;4.74;60.23;100073.63;5053823;28;20056;-61
2021/11/11 09:17:14;;;;;;;10.90;5.88;;;;;;;4.76;60.32;100078.00;5053861;28;20025;-63
2021/11/11 09:19:40;;;;;;;10.85;5.55;;;;;;;4.76;60.13;100073.56;5051630;28;20083;-62
2021/11/11 09:22:05;;;;;;;8.88;5.18;;;;;;;4.74;59.73;100070.13;5051959;28;20432;-63
2021/11/11 09:24:31;;;;;;;10.85;5.40;;;;;;;4.74;60.16;100072.78;5053297;28;20132;-63
2021/11/11 09:26:57;;;;;;;11.27;5.60;;;;;;;4.73;60.83;100061.31;5043998;28;20035;-62
2021/11/11 09:29:23;;;;;;;10.02;5.80;;;;;;;4.74;59.95;100070.13;5042334;28;20079;-63
2021/11/11 09:31:49;;;;;;;12.65;5.60;;;;;;;4.71;60.05;100070.31;5043524;28;20032;-61
2021/11/11 09:34:15;;;;;;;10.55;5.90;;;;;;;4.63;60.43;100054.78;5043017;28;20029;-63
2021/11/11 09:36:41;;;;;;;10.55;5.78;;;;;;;4.65;59.62;100060.88;5040903;28;20025;-61
2021/11/11 09:39:07;;;;;;;14.30;5.80;;;;;;;4.63;59.62;100048.59;5038476;28;20034;-64
2021/11/11 09:41:33;;;;;;;12.48;5.60;;;;;;;4.59;60.63;100039.97;5049682;28;20040;-63
2021/11/11 09:43:59;;;;;;;11.60;5.57;;;;;;;4.60;60.52;100045.19;5049545;28;20705;-63
2021/11/11 09:46:25;;;;;;;9.93;5.82;;;;;;;4.68;60.89;100043.91;5052649;28;20033;-64
2021/11/11 09:48:50;;;;;;;11.80;6.10;;;;;;;4.74;60.68;100038.31;5052913;28;20044;-62
2021/11/11 09:51:21;;;;;;;13.40;5.97;;;;;;;4.78;59.95;100034.53;5052581;28;20039;-63
2021/11/11 09:53:58;;;;;;;8.00;5.25;;;;;;;4.85;60.11;100029.78;5053204;28;20442;-62
2021/11/11 09:59:09;;;;;;;10.63;6.00;;;;;;;4.85;61.33;100041.22;5048302;28;20040;-64
2021/11/11 10:01:35;;;;;;;9.13;5.80;;;;;;;4.88;61.11;100050.84;5051648;28;20033;-62
2021/11/11 10:04:01;;;;;;;11.38;5.95;;;;;;;4.88;60.53;100050.84;5052408;28;20088;-63
2021/11/11 10:06:28;;;;;;;12.70;6.03;;;;;;;4.66;60.64;100013.97;5050227;28;20059;-66
2021/11/11 10:08:59;;;;;;;9.80;5.53;;;;;;;4.87;60.92;100055.28;5060696;28;20037;-66
2021/11/11 10:11:32;;;;;;;10.68;5.63;;;;;;;4.85;61.42;100048.34;5048830;28;20056;-66
2021/11/11 10:14:11;;;;;;;11.10;5.68;;;;;;;4.94;60.81;100042.53;5047366;28;20028;-66
2021/11/11 10:16:40;;;;;;;10.05;5.57;;;;;;;4.77;60.92;100010.75;5046965;28;20112;-64
2021/11/11 10:19:06;;;;;;;13.30;5.63;;;;;;;4.77;60.73;100029.31;5043128;28;20474;-62
2021/11/11 10:24:47;;;;;;;9.57;5.53;;;;;;;4.88;60.88;100034.91;5041973;28;20049;-64
2021/11/11 10:27:28;;;;;;;11.00;6.20;;;;;;;4.93;60.28;100045.25;5041553;28;20037;-70
2021/11/11 10:30:03;;;;;;;11.95;6.15;;;;;;;4.92;60.42;100033.81;5045813;28;20068;-68
2021/11/11 10:32:34;;;;;;;10.65;6.38;;;;;;;4.89;60.47;100026.84;5044052;28;20032;-67
2021/11/11 10:35:07;;;;;;;12.00;7.18;;;;;;;4.85;60.11;100029.78;5038680;28;20033;-65
2021/11/11 10:37:36;;;;;;;12.63;7.35;;;;;;;4.87;61.01;100043.81;5041790;28;20029;-65
2021/11/11 10:40:05;;;;;;;9.35;6.18;;;;;;;4.87;60.56;100046.47;5045729;28;20032;-65
2021/11/11 10:42:32;;;;;;;14.43;6.63;;;;;;;4.87;60.79;100057.09;5042366;28;20029;-64
2021/11/11 10:45:00;;;;;;;12.30;6.45;;;;;;;4.86;60.17;100050.06;5037499;28;20135;-64
2021/11/11 10:47:31;;;;;;;11.93;6.05;;;;;;;4.83;60.68;100043.09;5064196;28;20108;-62
2021/11/11 10:49:58;;;;;;;11.07;6.40;;;;;;;4.84;60.82;100054.59;5055869;28;20039;-63
2021/11/11 10:52:31;;;;;;;9.77;5.93;;;;;;;4.87;60.75;100044.66;5061009;28;20537;-64
2021/11/11 10:54:59;;;;;;;11.02;6.03;;;;;;;4.80;60.61;100037.97;5043975;28;20029;-69
2021/11/11 10:57:40;;;;;;;12.70;6.53;;;;;;;4.92;61.32;100044.41;5041858;28;20524;-64
2021/11/11 11:00:12;;;;;;;10.98;5.70;;;;;;;4.96;61.02;100042.47;5044257;28;20037;-63
2021/11/11 11:02:53;;;;;;;12.55;6.18;;;;;;;5.07;60.37;100033.94;5041687;28;20553;-63
2021/11/11 11:05:22;;;;;;;10.43;5.97;;;;;;;4.97;60.80;100046.84;5043239;28;20052;-63
2021/11/11 11:07:52;;;;;;;11.73;6.10;;;;;;;4.94;60.40;100046.97;5053150;28;20035;-63
2021/11/11 11:10:18;;;;;;;12.43;6.20;;;;;;;4.96;59.91;100053.91;5044018;28;20029;-64
2021/11/11 11:12:44;;;;;;;9.43;5.90;;;;;;;4.96;60.50;100053.91;5063196;28;20024;-62
2021/11/11 11:15:34;;;;;;;11.52;6.13;;;;;;;5.05;60.80;100035.78;5054393;28;20025;-62
2021/11/11 11:17:59;;;;;;;10.25;6.07;;;;;;;4.95;60.88;100033.63;5043448;28;20043;-62
2021/11/11 11:20:27;;;;;;;10.98;5.97;;;;;;;5.00;60.69;100025.44;5060365;28;20025;-63
2021/11/11 11:23:14;;;;;;;9.85;6.10;;;;;;;5.12;60.78;100029.22;5045446;28;20021;-64
2021/11/11 11:25:49;;;;;;;10.38;5.88;;;;;;;5.09;60.68;100037.34;5038625;28;20040;-63
2021/11/11 11:28:40;;;;;;;11.35;6.28;;;;;;;5.09;60.44;100040.84;5062100;28;20440;-63
2021/11/11 11:31:08;;;;;;;13.40;6.53;;;;;;;4.96;60.19;100042.47;5065180;28;20032;-62
2021/11/11 11:33:43;;;;;;;10.55;6.28;;;;;;;4.77;60.41;100026.66;5052986;28;20117;-63
2021/11/11 11:36:15;;;;;;;10.60;6.38;;;;;;;4.85;60.75;100057.16;5062130;28;20524;-65
2021/11/11 11:38:54;;;;;;;12.18;6.45;;;;;;;4.86;60.93;100052.72;5062454;28;20090;-64
2021/11/11 11:41:43;;;;;;;13.07;7.00;;;;;;;4.92;61.10;100054.16;5052847;28;20029;-64
2021/11/11 11:44:35;;;;;;;13.02;7.03;;;;;;;4.91;60.86;100041.84;5061119;28;20033;-65
2021/11/11 11:47:07;;;;;;;9.45;6.00;;;;;;;4.81;61.83;100038.81;5065224;28;20045;-64
2021/11/11 11:49:34;;;;;;;10.57;6.20;;;;;;;4.86;60.89;100052.72;5052301;28;20107;-63
2021/11/11 11:52:00;;;;;;;13.63;6.43;;;;;;;4.66;62.39;100041.34;5062167;28;20515;-65
2021/11/11 11:55:13;;;;;;;11.80;6.05;;;;;;;4.60;62.64;100045.19;5059641;28;20104;-70
2021/11/11 12:00:15;;;;;;;11.63;6.30;;;;;;;4.61;63.25;100043.41;5061915;28;20025;-68
2021/11/11 12:08:11;;;;;;;10.15;6.80;;;;;;;4.59;63.09;100029.38;5040691;28;20029;-67